Time;durP1;ratioP1;P1;durP2;ratioP2;P2;SDS_P1;SDS_P2;PMS_P1;PMS_P2;Temp;Humidity;BMP_temperature;BMP_pressure;BME280_temperature;BME280_humidity;BME280_pressure;Samples;Min_cycle;Max_cycle;Signal;HPM_P1;HPM_P2
2023/05/24 00:01:49;;;;;;;16.00;10.80;;;;;;;-128.00;-1.00;-1.00;105464;1253;1004281;-80
2023/05/24 00:04:15;;;;;;;13.80;10.90;;;;;;;-128.00;-1.00;-1.00;105447;1254;1004305;-77
2023/05/24 00:06:43;;;;;;;13.40;10.50;;;;;;;-128.00;-1.00;-1.00;105458;1254;1004407;-77
2023/05/24 00:09:11;;;;;;;17.00;12.50;;;;;;;-128.00;-1.00;-1.00;105434;1253;1004323;-77
2023/05/24 00:11:37;;;;;;;14.70;11.50;;;;;;;-128.00;-1.00;-1.00;105436;1252;1004824;-80
2023/05/24 00:14:04;;;;;;;13.80;11.50;;;;;;;-128.00;-1.00;-1.00;105336;1253;1006012;-78
2023/05/24 00:16:30;;;;;;;16.00;11.10;;;;;;;-128.00;-1.00;-1.00;105470;1252;1003676;-80
2023/05/24 00:18:58;;;;;;;14.80;11.00;;;;;;;-128.00;-1.00;-1.00;105436;1252;1005534;-77
2023/05/24 00:21:24;;;;;;;13.70;10.40;;;;;;;-128.00;-1.00;-1.00;105303;1254;1004262;-77
2023/05/24 00:23:51;;;;;;;14.70;11.00;;;;;;;-128.00;-1.00;-1.00;105453;1253;1004402;-78
2023/05/24 00:26:17;;;;;;;13.40;11.00;;;;;;;-128.00;-1.00;-1.00;105490;1253;1004422;-77
2023/05/24 00:28:44;;;;;;;13.70;10.90;;;;;;;-128.00;-1.00;-1.00;105430;1253;1005075;-78
2023/05/24 00:31:10;;;;;;;13.30;10.90;;;;;;;-128.00;-1.00;-1.00;105449;1254;1005131;-78
2023/05/24 00:33:37;;;;;;;16.70;11.80;;;;;;;-128.00;-1.00;-1.00;105500;1253;1004313;-80
2023/05/24 00:36:03;;;;;;;15.10;11.10;;;;;;;-128.00;-1.00;-1.00;105557;1253;1004783;-80
2023/05/24 00:38:30;;;;;;;15.30;10.80;;;;;;;-128.00;-1.00;-1.00;105540;1254;1004178;-80
2023/05/24 00:40:56;;;;;;;15.70;11.20;;;;;;;-128.00;-1.00;-1.00;105499;1252;1004074;-77
2023/05/24 00:43:23;;;;;;;14.30;10.80;;;;;;;-128.00;-1.00;-1.00;105524;1254;1004118;-77
2023/05/24 00:46:15;;;;;;;15.60;10.80;;;;;;;-128.00;-1.00;-1.00;105497;1253;1003739;-77
2023/05/24 00:48:41;;;;;;;17.00;10.50;;;;;;;-128.00;-1.00;-1.00;105460;1253;1046820;-80
2023/05/24 00:51:08;;;;;;;14.70;10.80;;;;;;;-128.00;-1.00;-1.00;105335;1252;1004496;-77
2023/05/24 00:53:35;;;;;;;15.90;10.50;;;;;;;-128.00;-1.00;-1.00;105335;1254;1004296;-78
2023/05/24 00:56:02;;;;;;;15.80;11.20;;;;;;;-128.00;-1.00;-1.00;105197;1254;1004125;-80
2023/05/24 00:58:30;;;;;;;14.90;11.50;;;;;;;-128.00;-1.00;-1.00;105492;1253;1003893;-80
2023/05/24 01:00:58;;;;;;;17.50;11.30;;;;;;;-128.00;-1.00;-1.00;105465;1253;1004928;-80
2023/05/24 01:03:28;;;;;;;14.70;11.50;;;;;;;-128.00;-1.00;-1.00;105669;1253;1060340;-77
2023/05/24 01:05:58;;;;;;;14.10;10.20;;;;;;;-128.00;-1.00;-1.00;105669;1252;1057823;-78
2023/05/24 01:08:28;;;;;;;13.90;10.60;;;;;;;-128.00;-1.00;-1.00;105655;1253;1058565;-79
2023/05/24 01:11:06;;;;;;;14.00;11.30;;;;;;;-128.00;-1.00;-1.00;105670;1253;1047261;-80
2023/05/24 01:13:44;;;;;;;14.10;10.80;;;;;;;-128.00;-1.00;-1.00;105558;1253;1047579;-80
2023/05/24 01:16:16;;;;;;;12.70;9.70;;;;;;;-128.00;-1.00;-1.00;105401;1253;1062316;-77
2023/05/24 01:18:45;;;;;;;17.60;11.00;;;;;;;-128.00;-1.00;-1.00;105315;1254;1058373;-80
2023/05/24 01:21:33;;;;;;;16.10;11.30;;;;;;;-128.00;-1.00;-1.00;105335;1254;1059529;-78
2023/05/24 01:24:24;;;;;;;12.00;9.60;;;;;;;-128.00;-1.00;-1.00;105672;1253;1047453;-78
2023/05/24 01:27:04;;;;;;;13.60;10.60;;;;;;;-128.00;-1.00;-1.00;105564;1253;1048505;-81
2023/05/24 01:29:31;;;;;;;15.20;12.20;;;;;;;-128.00;-1.00;-1.00;105560;1254;1060155;-80
2023/05/24 01:31:59;;;;;;;14.00;11.70;;;;;;;-128.00;-1.00;-1.00;105582;1253;1004295;-78
2023/05/24 01:34:25;;;;;;;17.00;12.50;;;;;;;-128.00;-1.00;-1.00;105560;1254;1004395;-77
2023/05/24 01:36:52;;;;;;;15.90;11.60;;;;;;;-128.00;-1.00;-1.00;105663;1253;1003882;-77
2023/05/24 01:39:19;;;;;;;19.00;12.10;;;;;;;-128.00;-1.00;-1.00;105500;1252;1005073;-80
2023/05/24 01:42:04;;;;;;;20.20;13.00;;;;;;;-128.00;-1.00;-1.00;105679;1252;1004685;-80
2023/05/24 01:44:38;;;;;;;15.30;12.20;;;;;;;-128.00;-1.00;-1.00;105707;1252;1059264;-79
2023/05/24 01:47:19;;;;;;;15.70;12.60;;;;;;;-128.00;-1.00;-1.00;105614;1252;1061549;-80
2023/05/24 01:49:50;;;;;;;17.80;12.60;;;;;;;-128.00;-1.00;-1.00;105657;1253;1047137;-78
2023/05/24 01:52:18;;;;;;;17.20;11.60;;;;;;;-128.00;-1.00;-1.00;105711;1253;1047740;-80
2023/05/24 01:54:49;;;;;;;16.80;12.00;;;;;;;-128.00;-1.00;-1.00;105349;1254;1062269;-79
2023/05/24 01:57:15;;;;;;;17.60;11.50;;;;;;;-128.00;-1.00;-1.00;105669;1253;1058631;-78
2023/05/24 01:59:42;;;;;;;18.20;12.10;;;;;;;-128.00;-1.00;-1.00;105492;1253;1005203;-80
2023/05/24 02:02:11;;;;;;;20.00;12.70;;;;;;;-128.00;-1.00;-1.00;105516;1253;1004334;-78
2023/05/24 02:04:38;;;;;;;16.40;12.30;;;;;;;-128.00;-1.00;-1.00;105653;1253;1046252;-80
2023/05/24 02:07:05;;;;;;;20.00;12.50;;;;;;;-128.00;-1.00;-1.00;105650;1253;1004744;-78
2023/05/24 02:09:31;;;;;;;14.40;10.50;;;;;;;-128.00;-1.00;-1.00;105437;1253;1004844;-78
2023/05/24 02:11:58;;;;;;;14.60;12.30;;;;;;;-128.00;-1.00;-1.00;105432;1253;1005015;-80
2023/05/24 02:14:25;;;;;;;16.30;11.80;;;;;;;-128.00;-1.00;-1.00;105583;1253;1004314;-80
2023/05/24 02:16:51;;;;;;;16.90;12.50;;;;;;;-128.00;-1.00;-1.00;105447;1253;1004470;-77
2023/05/24 02:19:18;;;;;;;17.30;11.90;;;;;;;-128.00;-1.00;-1.00;105457;1253;1004986;-80
2023/05/24 02:21:44;;;;;;;15.20;11.50;;;;;;;-128.00;-1.00;-1.00;105486;1253;1003774;-78
2023/05/24 02:24:11;;;;;;;15.90;11.40;;;;;;;-128.00;-1.00;-1.00;105543;1254;1003789;-80
2023/05/24 02:26:37;;;;;;;14.70;11.50;;;;;;;-128.00;-1.00;-1.00;105632;1254;1003847;-78
2023/05/24 02:29:04;;;;;;;16.10;11.20;;;;;;;-128.00;-1.00;-1.00;105677;1253;1004023;-78
2023/05/24 02:31:30;;;;;;;16.50;11.40;;;;;;;-128.00;-1.00;-1.00;105704;1253;1004533;-78
2023/05/24 02:33:57;;;;;;;20.90;11.80;;;;;;;-128.00;-1.00;-1.00;105722;1253;1003885;-78
2023/05/24 02:36:23;;;;;;;14.80;11.10;;;;;;;-128.00;-1.00;-1.00;105561;1252;1005068;-78
2023/05/24 02:38:50;;;;;;;15.50;11.70;;;;;;;-128.00;-1.00;-1.00;105703;1253;1003762;-80
2023/05/24 02:41:17;;;;;;;17.40;11.20;;;;;;;-128.00;-1.00;-1.00;105547;1251;1005518;-77
2023/05/24 02:43:44;;;;;;;16.00;10.60;;;;;;;-128.00;-1.00;-1.00;105531;1253;1004000;-80
2023/05/24 02:46:11;;;;;;;14.20;11.90;;;;;;;-128.00;-1.00;-1.00;105495;1251;1004162;-80
2023/05/24 02:48:38;;;;;;;16.40;11.40;;;;;;;-128.00;-1.00;-1.00;105494;1253;1004391;-78
2023/05/24 02:51:04;;;;;;;14.10;10.10;;;;;;;-128.00;-1.00;-1.00;105471;1253;1004383;-78
2023/05/24 02:53:31;;;;;;;12.90;9.80;;;;;;;-128.00;-1.00;-1.00;105464;1254;1004485;-78
2023/05/24 02:55:58;;;;;;;18.00;13.30;;;;;;;-128.00;-1.00;-1.00;105466;1253;1005370;-80
2023/05/24 02:58:27;;;;;;;13.00;10.50;;;;;;;-128.00;-1.00;-1.00;105450;1253;1004123;-81
2023/05/24 03:00:54;;;;;;;15.70;10.80;;;;;;;-128.00;-1.00;-1.00;105509;1253;1058923;-80
2023/05/24 03:03:20;;;;;;;12.20;10.30;;;;;;;-128.00;-1.00;-1.00;105343;1254;1004125;-78
2023/05/24 03:05:47;;;;;;;15.50;12.70;;;;;;;-128.00;-1.00;-1.00;105458;1253;1004499;-80
2023/05/24 03:08:13;;;;;;;20.10;16.00;;;;;;;-128.00;-1.00;-1.00;105451;1253;1003903;-80
2023/05/24 03:10:40;;;;;;;23.50;17.10;;;;;;;-128.00;-1.00;-1.00;105345;1253;1004162;-80
2023/05/24 03:13:06;;;;;;;22.30;16.70;;;;;;;-128.00;-1.00;-1.00;105462;1253;1003924;-79
2023/05/24 03:15:32;;;;;;;23.00;17.00;;;;;;;-128.00;-1.00;-1.00;105445;1252;1005263;-80
2023/05/24 03:17:59;;;;;;;22.30;17.90;;;;;;;-128.00;-1.00;-1.00;105560;1253;1005700;-78
2023/05/24 03:20:26;;;;;;;26.20;19.30;;;;;;;-128.00;-1.00;-1.00;105638;1253;1004391;-80
2023/05/24 03:22:53;;;;;;;24.90;19.80;;;;;;;-128.00;-1.00;-1.00;105555;1253;1004636;-81
2023/05/24 03:25:19;;;;;;;31.50;23.10;;;;;;;-128.00;-1.00;-1.00;105456;1253;1003558;-80
2023/05/24 03:27:46;;;;;;;36.10;27.80;;;;;;;-128.00;-1.00;-1.00;105431;1253;1004592;-80
2023/05/24 03:30:12;;;;;;;34.90;26.80;;;;;;;-128.00;-1.00;-1.00;105568;1253;1004022;-78
2023/05/24 03:32:38;;;;;;;32.50;25.90;;;;;;;-128.00;-1.00;-1.00;105724;1253;1004286;-80
2023/05/24 03:35:05;;;;;;;37.30;28.10;;;;;;;-128.00;-1.00;-1.00;105751;1253;1004750;-80
2023/05/24 03:37:31;;;;;;;35.90;27.00;;;;;;;-128.00;-1.00;-1.00;105729;1252;1004862;-78
2023/05/24 03:39:58;;;;;;;41.10;28.80;;;;;;;-128.00;-1.00;-1.00;105735;1253;1003232;-80
2023/05/24 03:42:24;;;;;;;40.40;30.50;;;;;;;-128.00;-1.00;-1.00;105738;1253;1004135;-79
2023/05/24 03:44:50;;;;;;;44.40;33.10;;;;;;;-128.00;-1.00;-1.00;105766;1253;1003632;-81
2023/05/24 03:47:17;;;;;;;44.90;34.40;;;;;;;-128.00;-1.00;-1.00;105571;1252;1058233;-78
2023/05/24 03:49:43;;;;;;;36.60;29.00;;;;;;;-128.00;-1.00;-1.00;105468;1253;1005319;-81
2023/05/24 03:52:10;;;;;;;42.80;31.40;;;;;;;-128.00;-1.00;-1.00;105487;1253;1003678;-80
2023/05/24 03:54:37;;;;;;;40.90;31.30;;;;;;;-128.00;-1.00;-1.00;105486;1253;1004226;-78
2023/05/24 03:57:03;;;;;;;40.90;30.60;;;;;;;-128.00;-1.00;-1.00;105477;1253;1003589;-80
2023/05/24 03:59:30;;;;;;;38.10;28.20;;;;;;;-128.00;-1.00;-1.00;105456;1253;1003709;-80
2023/05/24 04:01:56;;;;;;;38.00;29.10;;;;;;;-128.00;-1.00;-1.00;105465;1253;1004540;-80
2023/05/24 04:04:22;;;;;;;36.90;29.90;;;;;;;-128.00;-1.00;-1.00;105481;1253;1003620;-78
2023/05/24 04:06:49;;;;;;;40.70;31.60;;;;;;;-128.00;-1.00;-1.00;105508;1253;1004410;-78
2023/05/24 04:09:15;;;;;;;38.70;29.90;;;;;;;-128.00;-1.00;-1.00;105475;1253;1005647;-80
2023/05/24 04:11:42;;;;;;;44.10;31.50;;;;;;;-128.00;-1.00;-1.00;105450;1253;1004640;-78
2023/05/24 04:14:08;;;;;;;43.70;31.60;;;;;;;-128.00;-1.00;-1.00;105470;1253;1004451;-80
2023/05/24 04:16:35;;;;;;;38.60;30.50;;;;;;;-128.00;-1.00;-1.00;105489;1253;1005638;-80
2023/05/24 04:19:02;;;;;;;39.30;30.90;;;;;;;-128.00;-1.00;-1.00;105477;1253;1004491;-79
2023/05/24 04:21:29;;;;;;;44.00;34.40;;;;;;;-128.00;-1.00;-1.00;105464;1254;1004248;-80
2023/05/24 04:23:56;;;;;;;62.30;46.70;;;;;;;-128.00;-1.00;-1.00;105203;1252;1004431;-79
2023/05/24 04:26:23;;;;;;;59.10;46.70;;;;;;;-128.00;-1.00;-1.00;105462;1253;1005154;-80
2023/05/24 04:28:50;;;;;;;46.40;35.80;;;;;;;-128.00;-1.00;-1.00;105489;1253;1004398;-80
2023/05/24 04:31:16;;;;;;;41.70;33.20;;;;;;;-128.00;-1.00;-1.00;105488;1253;1004628;-80
2023/05/24 04:33:43;;;;;;;39.60;30.90;;;;;;;-128.00;-1.00;-1.00;105325;1253;1004258;-78
2023/05/24 04:36:10;;;;;;;39.10;31.30;;;;;;;-128.00;-1.00;-1.00;105534;1253;1005048;-81
2023/05/24 04:38:37;;;;;;;44.40;33.90;;;;;;;-128.00;-1.00;-1.00;105453;1253;1004887;-78
2023/05/24 04:41:04;;;;;;;39.20;32.70;;;;;;;-128.00;-1.00;-1.00;105546;1253;1003931;-78
2023/05/24 04:43:31;;;;;;;39.60;30.70;;;;;;;-128.00;-1.00;-1.00;105384;1253;1004158;-80
2023/05/24 04:45:58;;;;;;;41.60;31.30;;;;;;;-128.00;-1.00;-1.00;105306;1253;1004655;-78
2023/05/24 04:48:24;;;;;;;39.80;31.80;;;;;;;-128.00;-1.00;-1.00;105518;1253;1004304;-78
2023/05/24 04:50:53;;;;;;;40.40;31.20;;;;;;;-128.00;-1.00;-1.00;105486;1253;1004937;-80
2023/05/24 04:53:20;;;;;;;41.40;32.60;;;;;;;-128.00;-1.00;-1.00;105597;1253;1046230;-78
2023/05/24 04:55:47;;;;;;;43.10;31.60;;;;;;;-128.00;-1.00;-1.00;105329;1253;1005033;-78
2023/05/24 04:58:13;;;;;;;42.00;31.90;;;;;;;-128.00;-1.00;-1.00;105491;1253;1004490;-80
2023/05/24 05:00:40;;;;;;;41.00;31.70;;;;;;;-128.00;-1.00;-1.00;105457;1253;1004943;-78
2023/05/24 05:03:06;;;;;;;46.70;31.00;;;;;;;-128.00;-1.00;-1.00;105449;1253;1004015;-80
2023/05/24 05:05:33;;;;;;;45.60;34.20;;;;;;;-128.00;-1.00;-1.00;105474;1253;1004835;-80
2023/05/24 05:07:59;;;;;;;45.70;32.00;;;;;;;-128.00;-1.00;-1.00;105428;1253;1005217;-78
2023/05/24 05:10:26;;;;;;;45.90;33.00;;;;;;;-128.00;-1.00;-1.00;105409;1252;1004621;-80
2023/05/24 05:12:52;;;;;;;44.30;32.50;;;;;;;-128.00;-1.00;-1.00;105563;1253;1003933;-80
2023/05/24 05:15:22;;;;;;;47.60;33.70;;;;;;;-128.00;-1.00;-1.00;105543;1253;1004932;-78
2023/05/24 05:17:49;;;;;;;43.70;32.20;;;;;;;-128.00;-1.00;-1.00;105534;1254;1047042;-80
2023/05/24 05:20:15;;;;;;;42.30;32.40;;;;;;;-128.00;-1.00;-1.00;105519;1253;1004379;-80
2023/05/24 05:22:46;;;;;;;48.50;35.00;;;;;;;-128.00;-1.00;-1.00;105452;1253;1004769;-78
2023/05/24 05:25:12;;;;;;;45.60;32.50;;;;;;;-128.00;-1.00;-1.00;105330;1253;1061651;-80
2023/05/24 05:27:39;;;;;;;47.00;35.40;;;;;;;-128.00;-1.00;-1.00;105420;1253;1004922;-78
2023/05/24 05:30:07;;;;;;;48.00;35.90;;;;;;;-128.00;-1.00;-1.00;105478;1253;1005659;-77
2023/05/24 05:32:35;;;;;;;48.20;34.80;;;;;;;-128.00;-1.00;-1.00;105537;1255;1061360;-80
2023/05/24 05:35:02;;;;;;;48.40;35.80;;;;;;;-128.00;-1.00;-1.00;105345;1254;1005847;-80
2023/05/24 05:37:29;;;;;;;52.60;36.00;;;;;;;-128.00;-1.00;-1.00;105329;1254;1005577;-78
2023/05/24 05:39:56;;;;;;;52.40;37.10;;;;;;;-128.00;-1.00;-1.00;105345;1256;1004799;-80
2023/05/24 05:42:22;;;;;;;49.80;34.10;;;;;;;-128.00;-1.00;-1.00;105378;1253;1005101;-80
2023/05/24 05:44:49;;;;;;;50.50;32.70;;;;;;;-128.00;-1.00;-1.00;105473;1253;1003743;-80
2023/05/24 05:47:15;;;;;;;53.30;37.00;;;;;;;-128.00;-1.00;-1.00;105448;1253;1003545;-81
2023/05/24 05:49:41;;;;;;;52.00;35.90;;;;;;;-128.00;-1.00;-1.00;105523;1253;1005517;-78
2023/05/24 05:52:08;;;;;;;51.10;36.50;;;;;;;-128.00;-1.00;-1.00;105458;1253;1003710;-80
2023/05/24 05:54:34;;;;;;;53.40;37.70;;;;;;;-128.00;-1.00;-1.00;105460;1253;1005148;-80
2023/05/24 05:57:01;;;;;;;54.20;37.00;;;;;;;-128.00;-1.00;-1.00;105281;1254;1004623;-80
2023/05/24 05:59:27;;;;;;;51.40;35.30;;;;;;;-128.00;-1.00;-1.00;105479;1253;1004670;-78
2023/05/24 06:01:53;;;;;;;56.20;36.00;;;;;;;-128.00;-1.00;-1.00;105476;1253;1004167;-80
2023/05/24 06:04:20;;;;;;;48.60;33.30;;;;;;;-128.00;-1.00;-1.00;105512;1253;1047634;-78
2023/05/24 06:06:49;;;;;;;45.30;34.20;;;;;;;-128.00;-1.00;-1.00;105479;1253;1003966;-80
2023/05/24 06:09:16;;;;;;;44.20;35.00;;;;;;;-128.00;-1.00;-1.00;105444;1252;1059350;-80
2023/05/24 06:11:43;;;;;;;48.60;33.50;;;;;;;-128.00;-1.00;-1.00;105434;1253;1004605;-80
2023/05/24 06:14:11;;;;;;;43.70;32.40;;;;;;;-128.00;-1.00;-1.00;105422;1253;1005100;-78
2023/05/24 06:16:42;;;;;;;42.70;33.10;;;;;;;-128.00;-1.00;-1.00;105548;1253;1004481;-78
2023/05/24 06:19:08;;;;;;;45.30;32.40;;;;;;;-128.00;-1.00;-1.00;105410;1253;1061492;-80
2023/05/24 06:21:36;;;;;;;42.70;31.30;;;;;;;-128.00;-1.00;-1.00;105456;1253;1004977;-80
2023/05/24 06:24:03;;;;;;;44.10;32.70;;;;;;;-128.00;-1.00;-1.00;105440;1253;1004153;-78
2023/05/24 06:26:29;;;;;;;45.50;32.60;;;;;;;-128.00;-1.00;-1.00;105476;1253;1004259;-78
2023/05/24 06:28:56;;;;;;;44.20;32.90;;;;;;;-128.00;-1.00;-1.00;105423;1253;1003583;-79
2023/05/24 06:31:22;;;;;;;50.80;33.10;;;;;;;-128.00;-1.00;-1.00;105571;1253;1004706;-78
2023/05/24 06:33:49;;;;;;;40.60;30.40;;;;;;;-128.00;-1.00;-1.00;105436;1253;1004010;-78
2023/05/24 06:36:15;;;;;;;43.90;31.70;;;;;;;-128.00;-1.00;-1.00;105476;1253;1003908;-78
2023/05/24 06:38:41;;;;;;;42.10;31.90;;;;;;;-128.00;-1.00;-1.00;105218;1254;1003511;-80
2023/05/24 06:41:08;;;;;;;27.20;19.60;;;;;;;-128.00;-1.00;-1.00;105382;1254;1004912;-78
2023/05/24 06:43:34;;;;;;;16.00;10.50;;;;;;;-128.00;-1.00;-1.00;105321;1254;1005189;-79
2023/05/24 06:46:01;;;;;;;13.00;9.00;;;;;;;-128.00;-1.00;-1.00;105374;1253;1003585;-78
2023/05/24 06:48:27;;;;;;;15.10;9.30;;;;;;;-128.00;-1.00;-1.00;105421;1254;1005177;-78
2023/05/24 06:50:53;;;;;;;13.20;9.70;;;;;;;-128.00;-1.00;-1.00;105245;1255;1003954;-78
2023/05/24 06:53:20;;;;;;;15.70;10.00;;;;;;;-128.00;-1.00;-1.00;105431;1253;1004143;-80
2023/05/24 06:55:46;;;;;;;19.30;13.90;;;;;;;-128.00;-1.00;-1.00;105361;1254;1059243;-80
2023/05/24 06:58:13;;;;;;;12.20;8.70;;;;;;;-128.00;-1.00;-1.00;105412;1253;1004481;-78
2023/05/24 07:00:41;;;;;;;12.90;7.20;;;;;;;-128.00;-1.00;-1.00;105255;1254;1003566;-80
2023/05/24 07:03:08;;;;;;;11.10;8.30;;;;;;;-128.00;-1.00;-1.00;105132;1254;1004248;-80
2023/05/24 07:05:34;;;;;;;9.20;7.40;;;;;;;-128.00;-1.00;-1.00;105109;1254;1004511;-78
2023/05/24 07:08:01;;;;;;;11.10;7.50;;;;;;;-128.00;-1.00;-1.00;105594;1254;1004208;-78
2023/05/24 07:10:27;;;;;;;9.30;7.30;;;;;;;-128.00;-1.00;-1.00;105194;1255;1004749;-78
2023/05/24 07:12:54;;;;;;;12.80;7.80;;;;;;;-128.00;-1.00;-1.00;105262;1252;1004874;-80
2023/05/24 07:15:21;;;;;;;9.30;6.20;;;;;;;-128.00;-1.00;-1.00;105355;1254;1004631;-78
2023/05/24 07:17:47;;;;;;;7.70;5.90;;;;;;;-128.00;-1.00;-1.00;105299;1254;1006120;-80
2023/05/24 07:20:14;;;;;;;6.60;5.20;;;;;;;-128.00;-1.00;-1.00;105432;1253;1004379;-80
2023/05/24 07:22:40;;;;;;;6.10;4.70;;;;;;;-128.00;-1.00;-1.00;105419;1256;1005326;-80
2023/05/24 07:25:08;;;;;;;6.20;4.80;;;;;;;-128.00;-1.00;-1.00;105287;1253;1003691;-78
2023/05/24 07:27:34;;;;;;;6.20;4.40;;;;;;;-128.00;-1.00;-1.00;105196;1253;1003959;-78
2023/05/24 07:30:02;;;;;;;5.80;4.40;;;;;;;-128.00;-1.00;-1.00;105243;1253;1005100;-78
2023/05/24 07:32:28;;;;;;;4.70;4.20;;;;;;;-128.00;-1.00;-1.00;105403;1253;1004906;-78
2023/05/24 07:34:55;;;;;;;4.50;3.90;;;;;;;-128.00;-1.00;-1.00;105411;1253;1003820;-78
2023/05/24 07:37:23;;;;;;;5.10;4.20;;;;;;;-128.00;-1.00;-1.00;105256;1254;1003720;-80
2023/05/24 07:39:50;;;;;;;5.50;4.10;;;;;;;-128.00;-1.00;-1.00;105401;1253;1004178;-78
2023/05/24 07:42:17;;;;;;;7.10;4.80;;;;;;;-128.00;-1.00;-1.00;105388;1253;1004782;-79
2023/05/24 07:44:43;;;;;;;7.40;6.20;;;;;;;-128.00;-1.00;-1.00;105277;1252;1004486;-80
2023/05/24 07:47:10;;;;;;;7.40;5.90;;;;;;;-128.00;-1.00;-1.00;105484;1252;1005001;-79
2023/05/24 07:49:37;;;;;;;8.90;6.70;;;;;;;-128.00;-1.00;-1.00;105471;1254;1005431;-78
2023/05/24 07:52:05;;;;;;;9.00;7.30;;;;;;;-128.00;-1.00;-1.00;105355;1253;1003898;-79
2023/05/24 07:54:31;;;;;;;13.80;9.20;;;;;;;-128.00;-1.00;-1.00;105176;1254;1004357;-77
2023/05/24 07:56:58;;;;;;;9.50;7.90;;;;;;;-128.00;-1.00;-1.00;105143;1253;1005416;-77
2023/05/24 07:59:25;;;;;;;9.20;6.90;;;;;;;-128.00;-1.00;-1.00;105236;1254;1005336;-77
2023/05/24 08:01:51;;;;;;;8.50;7.00;;;;;;;-128.00;-1.00;-1.00;105387;1253;1004442;-80
2023/05/24 08:04:17;;;;;;;8.80;7.70;;;;;;;-128.00;-1.00;-1.00;105224;1254;1004173;-80
2023/05/24 08:06:45;;;;;;;7.40;6.60;;;;;;;-128.00;-1.00;-1.00;105300;1253;1004474;-78
2023/05/24 08:09:11;;;;;;;7.40;5.70;;;;;;;-128.00;-1.00;-1.00;105312;1253;1004606;-79
2023/05/24 08:11:38;;;;;;;8.80;6.40;;;;;;;-128.00;-1.00;-1.00;104998;1253;1005960;-79
2023/05/24 08:14:04;;;;;;;9.60;7.70;;;;;;;-128.00;-1.00;-1.00;105314;1254;1004213;-77
2023/05/24 08:16:31;;;;;;;9.00;7.80;;;;;;;-128.00;-1.00;-1.00;105158;1254;1004337;-80
2023/05/24 08:18:57;;;;;;;7.60;6.50;;;;;;;-128.00;-1.00;-1.00;105354;1253;1004010;-79
2023/05/24 08:21:24;;;;;;;11.30;7.30;;;;;;;-128.00;-1.00;-1.00;105394;1254;1004340;-80
2023/05/24 08:23:50;;;;;;;6.60;5.60;;;;;;;-128.00;-1.00;-1.00;105317;1253;1003307;-77
2023/05/24 08:26:18;;;;;;;15.70;10.60;;;;;;;-128.00;-1.00;-1.00;105362;1254;1005627;-79
2023/05/24 08:28:44;;;;;;;11.10;8.30;;;;;;;-128.00;-1.00;-1.00;105373;1253;1005285;-80
2023/05/24 08:31:11;;;;;;;8.40;6.70;;;;;;;-128.00;-1.00;-1.00;105279;1252;1004509;-77
2023/05/24 08:33:37;;;;;;;12.90;7.90;;;;;;;-128.00;-1.00;-1.00;105273;1254;1003774;-79
2023/05/24 08:36:03;;;;;;;10.60;8.20;;;;;;;-128.00;-1.00;-1.00;105417;1253;1006248;-80
2023/05/24 08:38:30;;;;;;;12.80;8.60;;;;;;;-128.00;-1.00;-1.00;105294;1254;1004249;-77
2023/05/24 08:40:57;;;;;;;12.40;9.30;;;;;;;-128.00;-1.00;-1.00;105210;1253;1005234;-77
2023/05/24 08:43:23;;;;;;;16.70;12.50;;;;;;;-128.00;-1.00;-1.00;105078;1254;1003902;-77
2023/05/24 08:45:50;;;;;;;18.30;13.60;;;;;;;-128.00;-1.00;-1.00;104970;1254;1003864;-79
2023/05/24 08:48:17;;;;;;;24.00;17.30;;;;;;;-128.00;-1.00;-1.00;105135;1253;1004733;-77
2023/05/24 08:50:43;;;;;;;29.60;18.60;;;;;;;-128.00;-1.00;-1.00;105032;1254;1005839;-79
2023/05/24 08:53:10;;;;;;;16.10;12.70;;;;;;;-128.00;-1.00;-1.00;105028;1254;1004585;-79
2023/05/24 08:55:37;;;;;;;16.60;11.70;;;;;;;-128.00;-1.00;-1.00;105286;1254;1004591;-78
2023/05/24 08:58:03;;;;;;;13.40;10.80;;;;;;;-128.00;-1.00;-1.00;105405;1253;1004364;-80
2023/05/24 09:00:30;;;;;;;17.20;10.70;;;;;;;-128.00;-1.00;-1.00;105285;1254;1004589;-77
2023/05/24 09:02:56;;;;;;;13.60;10.50;;;;;;;-128.00;-1.00;-1.00;105366;1253;1004208;-78
2023/05/24 09:05:23;;;;;;;15.90;11.50;;;;;;;-128.00;-1.00;-1.00;105163;1254;1004410;-81
2023/05/24 09:07:49;;;;;;;16.40;11.70;;;;;;;-128.00;-1.00;-1.00;105165;1252;1004108;-79
2023/05/24 09:10:16;;;;;;;17.50;13.30;;;;;;;-128.00;-1.00;-1.00;105289;1253;1004739;-80
2023/05/24 09:12:44;;;;;;;15.50;12.20;;;;;;;-128.00;-1.00;-1.00;105212;1254;1003982;-77
2023/05/24 09:15:11;;;;;;;15.40;11.60;;;;;;;-128.00;-1.00;-1.00;105149;1254;1003789;-79
2023/05/24 09:17:37;;;;;;;15.90;11.30;;;;;;;-128.00;-1.00;-1.00;105202;1252;1004645;-77
2023/05/24 09:20:07;;;;;;;14.50;11.40;;;;;;;-128.00;-1.00;-1.00;105293;1253;1005028;-78
2023/05/24 09:22:34;;;;;;;18.90;12.40;;;;;;;-128.00;-1.00;-1.00;105342;1253;1059696;-79
2023/05/24 09:25:01;;;;;;;19.20;13.60;;;;;;;-128.00;-1.00;-1.00;105038;1253;1004095;-77
2023/05/24 09:27:27;;;;;;;19.80;14.70;;;;;;;-128.00;-1.00;-1.00;105179;1254;1004642;-77
2023/05/24 09:29:54;;;;;;;18.80;14.10;;;;;;;-128.00;-1.00;-1.00;105390;1252;1004208;-80
2023/05/24 09:32:23;;;;;;;17.20;13.20;;;;;;;-128.00;-1.00;-1.00;105158;1254;1003977;-77
2023/05/24 09:34:52;;;;;;;17.30;13.80;;;;;;;-128.00;-1.00;-1.00;105177;1254;1057808;-77
2023/05/24 09:37:21;;;;;;;17.20;14.00;;;;;;;-128.00;-1.00;-1.00;105357;1253;1060682;-77
2023/05/24 09:39:49;;;;;;;20.50;13.90;;;;;;;-128.00;-1.00;-1.00;105369;1253;1046913;-77
2023/05/24 09:42:29;;;;;;;22.50;16.10;;;;;;;-128.00;-1.00;-1.00;105091;1253;1004916;-77
2023/05/24 09:45:03;;;;;;;24.30;16.30;;;;;;;-128.00;-1.00;-1.00;105155;1253;1062225;-77
2023/05/24 09:47:30;;;;;;;23.60;17.90;;;;;;;-128.00;-1.00;-1.00;105204;1254;1059450;-77
2023/05/24 09:49:58;;;;;;;23.90;16.00;;;;;;;-128.00;-1.00;-1.00;105252;1256;1004581;-77
2023/05/24 09:52:24;;;;;;;23.60;15.90;;;;;;;-128.00;-1.00;-1.00;105293;1253;1005838;-77
2023/05/24 09:54:51;;;;;;;20.70;14.60;;;;;;;-128.00;-1.00;-1.00;105378;1253;1005344;-79
2023/05/24 09:57:17;;;;;;;22.10;13.90;;;;;;;-128.00;-1.00;-1.00;105274;1253;1004070;-80
2023/05/24 09:59:44;;;;;;;19.30;14.30;;;;;;;-128.00;-1.00;-1.00;105218;1253;1004358;-79
2023/05/24 10:02:11;;;;;;;24.00;14.30;;;;;;;-128.00;-1.00;-1.00;105085;1253;1004673;-80
2023/05/24 10:04:38;;;;;;;19.30;14.10;;;;;;;-128.00;-1.00;-1.00;105093;1254;1004379;-77
2023/05/24 10:07:05;;;;;;;22.00;15.70;;;;;;;-128.00;-1.00;-1.00;105197;1253;1004871;-80
2023/05/24 10:09:35;;;;;;;23.60;14.50;;;;;;;-128.00;-1.00;-1.00;105343;1254;1006652;-79
2023/05/24 10:12:03;;;;;;;20.30;14.60;;;;;;;-128.00;-1.00;-1.00;105229;1254;1058162;-80
2023/05/24 10:14:31;;;;;;;20.30;13.20;;;;;;;-128.00;-1.00;-1.00;105428;1253;1003691;-77
2023/05/24 10:16:58;;;;;;;24.20;15.70;;;;;;;-128.00;-1.00;-1.00;105286;1253;1004354;-79
2023/05/24 10:19:25;;;;;;;25.20;15.00;;;;;;;-128.00;-1.00;-1.00;105058;1254;1004125;-77
2023/05/24 10:21:52;;;;;;;24.60;15.10;;;;;;;-128.00;-1.00;-1.00;105231;1256;1004608;-77
2023/05/24 10:24:19;;;;;;;19.80;13.90;;;;;;;-128.00;-1.00;-1.00;105079;1254;1003869;-77
2023/05/24 10:26:47;;;;;;;17.40;13.30;;;;;;;-128.00;-1.00;-1.00;105033;1253;1004663;-79
2023/05/24 10:29:24;;;;;;;23.40;15.10;;;;;;;-128.00;-1.00;-1.00;105297;1254;1046873;-80
2023/05/24 10:31:50;;;;;;;17.80;12.90;;;;;;;-128.00;-1.00;-1.00;105389;1254;1047389;-78
2023/05/24 10:34:17;;;;;;;19.60;13.50;;;;;;;-128.00;-1.00;-1.00;105385;1254;1004098;-79
2023/05/24 10:36:43;;;;;;;17.60;12.80;;;;;;;-128.00;-1.00;-1.00;105416;1254;1003700;-79
2023/05/24 10:39:11;;;;;;;16.50;11.60;;;;;;;-128.00;-1.00;-1.00;105137;1254;1004763;-77
2023/05/24 10:41:39;;;;;;;15.60;12.40;;;;;;;-128.00;-1.00;-1.00;105377;1253;1005450;-80
2023/05/24 10:44:12;;;;;;;15.90;10.80;;;;;;;-128.00;-1.00;-1.00;105390;1253;1047891;-79
2023/05/24 10:47:08;;;;;;;97.10;63.70;;;;;;;-128.00;-1.00;-1.00;105386;1256;1062080;-79
2023/05/24 10:49:36;;;;;;;48.30;38.00;;;;;;;-128.00;-1.00;-1.00;105373;1253;1059130;-80
2023/05/24 10:52:07;;;;;;;21.90;17.00;;;;;;;-128.00;-1.00;-1.00;105303;1254;1004559;-79
2023/05/24 10:54:35;;;;;;;17.30;12.30;;;;;;;-128.00;-1.00;-1.00;105298;1254;1046627;-80
2023/05/24 10:57:04;;;;;;;15.00;12.30;;;;;;;-128.00;-1.00;-1.00;105416;1253;1004400;-78
2023/05/24 10:59:38;;;;;;;14.10;10.80;;;;;;;-128.00;-1.00;-1.00;105337;1254;1062345;-79
2023/05/24 11:02:08;;;;;;;17.30;10.70;;;;;;;-128.00;-1.00;-1.00;105346;1256;1059039;-77
2023/05/24 11:04:39;;;;;;;14.40;11.40;;;;;;;-128.00;-1.00;-1.00;105508;1254;1059259;-77
2023/05/24 11:07:08;;;;;;;16.10;12.00;;;;;;;-128.00;-1.00;-1.00;105532;1254;1047205;-77